createdAt,value
2023-01-23T00:01:18.260Z,103410.31
2023-01-23T00:03:46.194Z,103394.19
2023-01-23T00:06:16.885Z,103415.75
2023-01-23T00:08:46.954Z,103409.47
2023-01-23T00:11:17.036Z,103400.75
2023-01-23T00:13:44.795Z,103398.94
2023-01-23T00:16:14.688Z,103398.19
2023-01-23T00:18:42.759Z,103401.81
2023-01-23T00:21:13.219Z,103401.09
2023-01-23T00:23:45.888Z,103404.84
2023-01-23T00:26:16.594Z,103398.44
2023-01-23T00:28:44.873Z,103396.84
2023-01-23T00:31:15.443Z,103396.97
2023-01-23T00:33:45.093Z,103404.84
2023-01-23T00:36:14.386Z,103411.97
2023-01-23T00:38:43.821Z,103418.16
2023-01-23T00:41:12.594Z,103417.41
2023-01-23T00:43:40.356Z,103420.94
2023-01-23T00:46:08.835Z,103424.69
2023-01-23T00:48:36.738Z,103426.50
2023-01-23T00:51:05.744Z,103434.34
2023-01-23T00:53:33.518Z,103429.88
2023-01-23T00:56:02.924Z,103432.53
2023-01-23T00:58:30.750Z,103438.84
2023-01-23T01:00:58.478Z,103426.59
2023-01-23T01:03:26.222Z,103425.75
2023-01-23T01:05:54.158Z,103427.56
2023-01-23T01:08:21.983Z,103424.78
2023-01-23T01:10:49.729Z,103416.69
2023-01-23T01:13:21.461Z,103408.69
2023-01-23T01:15:49.894Z,103418.38
2023-01-23T01:18:18.199Z,103420.19
2023-01-23T01:20:46.489Z,103421.16
2023-01-23T01:23:14.521Z,103422.97
2023-01-23T01:25:42.349Z,103427.34
2023-01-23T01:28:10.039Z,103424.78
2023-01-23T01:30:39.912Z,103424.91
2023-01-23T01:33:08.443Z,103427.56
2023-01-23T01:35:36.214Z,103431.94
2023-01-23T01:38:03.913Z,103431.94
2023-01-23T01:40:34.928Z,103434.72
2023-01-23T01:43:04.329Z,103438.34
2023-01-23T01:46:09.296Z,103433.75
2023-01-23T01:48:43.837Z,103440.03
2023-01-23T01:51:18.357Z,103440.28
2023-01-23T01:53:50.463Z,103440.66
2023-01-23T01:56:19.772Z,103442.59
2023-01-23T01:58:50.153Z,103440.88
2023-01-23T02:01:18.818Z,103440.03
2023-01-23T02:03:49.427Z,103435.56
2023-01-23T02:06:17.449Z,103440.03
2023-01-23T02:08:51.571Z,103444.41
2023-01-23T02:11:19.715Z,103433.63
2023-01-23T02:13:47.456Z,103439.19
2023-01-23T02:16:19.773Z,103437.25
2023-01-23T02:18:50.896Z,103445.25
2023-01-23T02:21:24.897Z,103442.34
2023-01-23T02:24:10.284Z,103434.47
2023-01-23T02:26:41.914Z,103437.03
2023-01-23T02:29:09.810Z,103430.84
2023-01-23T02:31:38.325Z,103439.56
2023-01-23T02:34:06.786Z,103429.03
2023-01-23T02:36:36.409Z,103435.09
2023-01-23T02:39:07.444Z,103438.84
2023-01-23T02:41:37.512Z,103418.84
2023-01-23T02:44:13.506Z,103429.16
2023-01-23T02:46:41.933Z,103434.59
2023-01-23T02:49:09.931Z,103434.59
2023-01-23T02:51:37.731Z,103431.09
2023-01-23T02:54:05.925Z,103425.03
2023-01-23T02:56:33.965Z,103428.53
2023-01-23T02:59:19.395Z,103423.44
2023-01-23T03:01:48.458Z,103426.22
2023-01-23T03:04:16.242Z,103433.00
2023-01-23T03:06:43.955Z,103424.53
2023-01-23T03:09:13.784Z,103432.28
2023-01-23T03:11:43.186Z,103426.22
2023-01-23T03:14:12.518Z,103429.75
2023-01-23T03:16:41.439Z,103433.38
2023-01-23T03:19:11.668Z,103430.59
2023-01-23T03:21:41.555Z,103435.28
2023-01-23T03:24:10.539Z,103438.69
2023-01-23T03:26:39.997Z,103443.03
2023-01-23T03:29:25.520Z,103439.66
2023-01-23T03:31:53.777Z,103435.06
2023-01-23T03:34:22.903Z,103439.66
2023-01-23T03:36:50.660Z,103438.69
2023-01-23T03:39:35.760Z,103440.50
2023-01-23T03:42:03.467Z,103446.56
2023-01-23T03:44:32.540Z,103444.13
2023-01-23T03:47:00.527Z,103451.03
2023-01-23T03:49:29.675Z,103443.16
2023-01-23T03:51:57.420Z,103441.47
2023-01-23T03:54:25.191Z,103441.34
2023-01-23T03:56:52.926Z,103442.31
2023-01-23T03:59:20.611Z,103435.28
2023-01-23T04:01:48.999Z,103444.00
2023-01-23T04:04:16.837Z,103438.69
2023-01-23T04:06:45.929Z,103451.03
2023-01-23T04:09:13.798Z,103456.47
2023-01-23T04:11:41.512Z,103444.13
2023-01-23T04:14:09.227Z,103444.25
2023-01-23T04:16:36.895Z,103442.44
2023-01-23T04:19:04.724Z,103425.47
2023-01-23T04:21:32.421Z,103436.25
2023-01-23T04:24:01.473Z,103443.28
2023-01-23T04:26:29.202Z,103442.44
2023-01-23T04:28:56.904Z,103451.16
2023-01-23T04:31:25.396Z,103454.66
2023-01-23T04:33:53.091Z,103445.94
2023-01-23T04:36:20.810Z,103447.63
2023-01-23T04:38:48.535Z,103447.63
2023-01-23T04:41:20.644Z,103435.88
2023-01-23T04:43:48.564Z,103452.13
2023-01-23T04:46:16.693Z,103454.78
2023-01-23T04:48:44.468Z,103453.94
2023-01-23T04:51:12.224Z,103463.72
2023-01-23T04:53:40.249Z,103459.25
2023-01-23T04:56:08.309Z,103467.97
2023-01-23T04:58:37.346Z,103457.31
2023-01-23T05:01:06.851Z,103464.44
2023-01-23T05:03:35.201Z,103459.00
2023-01-23T05:06:03.111Z,103461.28
2023-01-23T05:08:30.850Z,103460.44
2023-01-23T05:10:58.556Z,103461.19
2023-01-23T05:13:26.331Z,103469.28
2023-01-23T05:15:55.389Z,103479.91
2023-01-23T05:18:23.123Z,103472.66
2023-01-23T05:20:50.788Z,103468.31
2023-01-23T05:23:18.619Z,103470.00
2023-01-23T05:25:46.404Z,103468.44
2023-01-23T05:28:14.287Z,103474.38
2023-01-23T05:30:42.062Z,103484.06
2023-01-23T05:33:11.187Z,103479.47
2023-01-23T05:35:40.138Z,103482.13
2023-01-23T05:38:08.137Z,103490.09
2023-01-23T05:40:35.855Z,103488.19
2023-01-23T05:43:03.574Z,103473.06
2023-01-23T05:45:31.378Z,103479.47
2023-01-23T05:47:59.063Z,103486.59
2023-01-23T05:50:28.173Z,103481.16
2023-01-23T05:52:55.860Z,103500.75
2023-01-23T05:55:23.897Z,103506.06
2023-01-23T05:57:51.641Z,103503.41
2023-01-23T06:00:20.495Z,103506.19
2023-01-23T06:02:48.476Z,103508.75
2023-01-23T06:05:16.411Z,103502.69
2023-01-23T06:07:45.507Z,103513.25
2023-01-23T06:10:13.295Z,103507.84
2023-01-23T06:12:40.999Z,103502.94
2023-01-23T06:15:09.404Z,103505.28
2023-01-23T06:17:37.173Z,103503.13
2023-01-23T06:20:07.213Z,103501.06
2023-01-23T06:22:34.968Z,103501.50
2023-01-23T06:25:04.573Z,103504.06
2023-01-23T06:27:32.342Z,103510.47
2023-01-23T06:30:00.052Z,103514.22
2023-01-23T06:32:27.792Z,103515.28
2023-01-23T06:34:55.482Z,103512.84
2023-01-23T06:37:23.228Z,103512.84
2023-01-23T06:39:50.971Z,103512.13
2023-01-23T06:42:20.055Z,103515.53
2023-01-23T06:44:48.003Z,103510.59
2023-01-23T06:47:16.645Z,103510.00
2023-01-23T06:49:44.415Z,103511.84
2023-01-23T06:52:12.188Z,103498.16
2023-01-23T06:54:39.862Z,103518.50
2023-01-23T06:57:07.651Z,103517.41
2023-01-23T06:59:37.563Z,103520.66
2023-01-23T07:02:05.288Z,103530.47
2023-01-23T07:04:34.032Z,103529.00
2023-01-23T07:07:01.778Z,103540.63
2023-01-23T07:09:29.594Z,103537.34
2023-01-23T07:11:57.361Z,103533.22
2023-01-23T07:14:27.138Z,103539.88
2023-01-23T07:16:56.639Z,103547.13
2023-01-23T07:19:24.369Z,103543.84
2023-01-23T07:21:52.152Z,103548.44
2023-01-23T07:24:19.862Z,103558.25
2023-01-23T07:26:47.603Z,103557.53
2023-01-23T07:29:15.361Z,103552.31
2023-01-23T07:31:43.109Z,103554.13
2023-01-23T07:34:12.175Z,103550.00
2023-01-23T07:36:39.903Z,103556.19
2023-01-23T07:39:07.853Z,103562.59
2023-01-23T07:41:35.569Z,103559.06
2023-01-23T07:44:03.361Z,103557.31
2023-01-23T07:46:31.068Z,103576.13
2023-01-23T07:48:58.818Z,103578.78
2023-01-23T07:51:27.914Z,103580.59
2023-01-23T07:53:55.736Z,103580.59
2023-01-23T07:56:23.469Z,103587.84
2023-01-23T07:58:51.957Z,103582.53
2023-01-23T08:01:20.295Z,103582.53
2023-01-23T08:03:48.093Z,103580.84
2023-01-23T08:06:15.928Z,103587.97
2023-01-23T08:08:45.093Z,103592.44
2023-01-23T08:11:14.060Z,103587.97
2023-01-23T08:13:42.084Z,103587.97
2023-01-23T08:16:12.015Z,103587.97
2023-01-23T08:18:41.281Z,103587.13
2023-01-23T08:21:08.976Z,103595.00
2023-01-23T08:23:36.912Z,103591.47
2023-01-23T08:26:08.321Z,103597.53
2023-01-23T08:28:36.611Z,103593.28
2023-01-23T08:31:07.196Z,103597.66
2023-01-23T08:33:35.859Z,103593.19
2023-01-23T08:36:03.947Z,103606.50
2023-01-23T08:38:31.809Z,103595.84
2023-01-23T08:41:00.826Z,103601.06
2023-01-23T08:43:30.958Z,103599.25
2023-01-23T08:46:00.266Z,103601.91
2023-01-23T08:48:29.204Z,103610.16
2023-01-23T08:51:01.923Z,103611.69
2023-01-23T08:53:30.211Z,103617.56
2023-01-23T08:56:00.982Z,103622.91
2023-01-23T08:58:30.219Z,103611.56
2023-01-23T09:00:58.360Z,103615.22
2023-01-23T09:03:26.275Z,103612.44
2023-01-23T09:05:54.346Z,103621.16
2023-01-23T09:08:22.147Z,103613.38
2023-01-23T09:10:49.903Z,103615.47
2023-01-23T09:13:19.674Z,103613.50
2023-01-23T09:15:48.772Z,103612.91
2023-01-23T09:18:16.458Z,103618.34
2023-01-23T09:20:44.304Z,103618.69
2023-01-23T09:23:12.184Z,103621.09
2023-01-23T09:25:40.240Z,103620.13
2023-01-23T09:28:08.325Z,103613.69
2023-01-23T09:30:36.173Z,103617.22
2023-01-23T09:33:05.455Z,103610.28
2023-01-23T09:35:33.496Z,103606.22
2023-01-23T09:38:01.374Z,103597.75
2023-01-23T09:40:35.676Z,103609.75
2023-01-23T09:43:13.871Z,103610.25
2023-01-23T09:45:45.000Z,103615.22
2023-01-23T09:48:22.123Z,103614.97
2023-01-23T09:50:57.313Z,103613.88
2023-01-23T09:53:32.043Z,103623.47
2023-01-23T09:56:05.278Z,103615.84
2023-01-23T09:58:37.990Z,103617.88
2023-01-23T10:01:06.092Z,103614.53
2023-01-23T10:03:35.267Z,103622.38
2023-01-23T10:06:17.547Z,103631.09
2023-01-23T10:08:58.903Z,103629.00
2023-01-23T10:11:36.770Z,103629.22
2023-01-23T10:14:25.415Z,103631.03
2023-01-23T10:17:03.982Z,103625.44
2023-01-23T10:19:44.227Z,103627.66
2023-01-23T10:22:26.464Z,103635.41
2023-01-23T10:24:57.147Z,103639.91
2023-01-23T10:27:27.462Z,103633.72
2023-01-23T10:30:00.630Z,103627.84
2023-01-23T10:32:31.193Z,103636.47
2023-01-23T10:35:06.574Z,103632.56
2023-01-23T10:37:47.576Z,103638.41
2023-01-23T10:40:17.348Z,103637.44
2023-01-23T10:42:45.105Z,103630.00
2023-01-23T10:45:20.355Z,103624.00
2023-01-23T10:47:54.618Z,103630.03
2023-01-23T10:50:36.901Z,103627.38
2023-01-23T10:53:08.691Z,103627.25
2023-01-23T10:55:36.868Z,103630.91
2023-01-23T10:58:06.794Z,103630.63
2023-01-23T11:00:37.318Z,103632.19
2023-01-23T11:03:32.528Z,103627.97
2023-01-23T11:06:05.835Z,103624.88
2023-01-23T11:08:38.337Z,103626.75
2023-01-23T11:11:24.940Z,103622.94
2023-01-23T11:14:05.699Z,103624.72
2023-01-23T11:16:33.840Z,103632.41
2023-01-23T11:19:12.142Z,103623.69
2023-01-23T11:21:53.505Z,103623.19
2023-01-23T11:24:37.806Z,103621.59
2023-01-23T11:27:16.873Z,103619.13
2023-01-23T11:30:08.703Z,103611.66
2023-01-23T11:32:47.675Z,103614.03
2023-01-23T11:35:17.565Z,103623.16
2023-01-23T11:37:46.820Z,103617.50
2023-01-23T11:40:19.174Z,103615.66
2023-01-23T11:42:47.783Z,103619.56
2023-01-23T11:45:33.783Z,103609.19
2023-01-23T11:48:20.110Z,103609.88
2023-01-23T11:50:55.234Z,103613.94
2023-01-23T11:53:42.045Z,103616.75
2023-01-23T11:56:55.108Z,103622.84
2023-01-23T11:59:45.901Z,103624.69
2023-01-23T12:02:58.095Z,103627.13
2023-01-23T12:05:44.930Z,103631.94
2023-01-23T12:08:21.246Z,103633.28
2023-01-23T12:11:09.333Z,103635.47
2023-01-23T12:13:50.571Z,103634.13
2023-01-23T12:16:26.176Z,103632.69
2023-01-23T12:19:12.218Z,103627.47
2023-01-23T12:21:49.743Z,103627.25
2023-01-23T12:24:27.030Z,103629.41
2023-01-23T12:27:02.679Z,103619.78
2023-01-23T12:29:48.472Z,103621.78
2023-01-23T12:32:36.826Z,103620.84
2023-01-23T12:35:21.971Z,103617.75
2023-01-23T12:38:06.906Z,103620.19
2023-01-23T12:40:42.018Z,103617.47
2023-01-23T12:43:19.362Z,103608.53
2023-01-23T12:45:52.017Z,103598.34
2023-01-23T12:48:28.172Z,103601.78
2023-01-23T12:51:01.981Z,103608.94
2023-01-23T12:53:36.079Z,103609.75
2023-01-23T12:56:08.784Z,103615.50
2023-01-23T12:58:43.507Z,103605.84
2023-01-23T13:01:25.247Z,103600.28
2023-01-23T13:04:00.059Z,103600.91
2023-01-23T13:06:50.444Z,103607.09
2023-01-23T13:09:27.543Z,103619.59
2023-01-23T13:12:05.449Z,103620.31
2023-01-23T13:17:42.652Z,103604.19
2023-01-23T13:20:44.515Z,103607.09
2023-01-23T13:23:36.630Z,103604.19
2023-01-23T13:26:26.555Z,103602.13
2023-01-23T13:28:55.634Z,103597.28
2023-01-23T13:31:35.028Z,103605.22
2023-01-23T13:34:15.344Z,103611.00
2023-01-23T13:36:44.709Z,103608.06
2023-01-23T13:39:28.736Z,103617.81
2023-01-23T13:42:45.813Z,103615.66
2023-01-23T13:45:30.545Z,103611.03
2023-01-23T14:20:40.053Z,103649.31
2023-01-23T14:23:19.042Z,103649.53
2023-01-23T14:25:46.880Z,103641.66
2023-01-23T14:28:19.126Z,103634.88
2023-01-23T14:30:57.538Z,103635.84
2023-01-23T14:33:25.861Z,103647.47
2023-01-23T14:35:56.181Z,103641.53
2023-01-23T14:38:33.491Z,103646.16
2023-01-23T14:41:05.953Z,103634.13
2023-01-23T14:43:37.197Z,103627.47
2023-01-23T14:46:12.938Z,103638.88
2023-01-23T14:48:43.836Z,103637.41
2023-01-23T14:51:20.106Z,103635.34
2023-01-23T14:53:58.659Z,103616.22
2023-01-23T14:56:30.643Z,103614.00
2023-01-23T14:59:02.857Z,103602.63
2023-01-23T15:01:30.638Z,103605.31
2023-01-23T15:04:01.668Z,103599.00
2023-01-23T15:06:32.004Z,103584.59
2023-01-23T15:09:14.803Z,103581.97
2023-01-23T15:11:43.208Z,103584.09
2023-01-23T15:14:24.998Z,103581.13
2023-01-23T15:17:00.760Z,103573.69
2023-01-23T15:19:31.745Z,103571.78
2023-01-23T15:22:08.015Z,103563.63
2023-01-23T15:24:36.058Z,103560.44
2023-01-23T15:27:23.653Z,103568.38
2023-01-23T15:29:53.246Z,103569.38
2023-01-23T15:32:27.159Z,103571.38
2023-01-23T15:34:57.655Z,103571.03
2023-01-23T15:37:27.139Z,103583.78
2023-01-23T15:39:58.224Z,103575.28
2023-01-23T15:42:29.487Z,103581.59
2023-01-23T15:45:01.398Z,103587.31
2023-01-23T15:47:30.350Z,103598.13
2023-01-23T15:50:01.404Z,103602.84
2023-01-23T15:52:31.721Z,103602.97
2023-01-23T15:55:01.912Z,103601.50
2023-01-23T15:57:29.670Z,103606.97
2023-01-23T15:59:58.785Z,103605.50
2023-01-23T16:02:32.312Z,103607.44
2023-01-23T16:05:01.862Z,103603.94
2023-01-23T16:07:34.358Z,103612.19
2023-01-23T16:10:05.130Z,103621.16
2023-01-23T16:12:35.479Z,103620.19
2023-01-23T16:15:14.260Z,103630.13
2023-01-23T16:17:41.998Z,103632.81
2023-01-23T16:20:14.570Z,103631.97
2023-01-23T16:22:42.866Z,103632.19
2023-01-23T16:25:19.209Z,103628.06
2023-01-23T16:27:46.884Z,103622.63
2023-01-23T16:30:19.316Z,103623.47
2023-01-23T16:32:47.120Z,103621.41
2023-01-23T16:35:17.179Z,103619.47
2023-01-23T16:37:48.244Z,103621.16
2023-01-23T16:40:18.438Z,103625.53
2023-01-23T16:42:47.709Z,103625.66
2023-01-23T16:45:19.593Z,103618.25
2023-01-23T16:47:47.532Z,103619.94
2023-01-23T16:50:17.724Z,103614.72
2023-01-23T16:52:51.774Z,103625.41
2023-01-23T16:55:22.755Z,103617.53
2023-01-23T16:57:54.306Z,103622.00
2023-01-23T17:00:34.049Z,103625.66
2023-01-23T17:03:04.271Z,103627.47
2023-01-23T17:05:32.082Z,103618.16
2023-01-23T17:07:59.924Z,103621.28
2023-01-23T17:10:41.243Z,103611.91
2023-01-23T17:13:15.065Z,103611.34
2023-01-23T17:15:44.267Z,103618.09
2023-01-23T17:18:22.316Z,103621.78
2023-01-23T17:20:50.750Z,103625.84
2023-01-23T17:23:18.509Z,103635.41
2023-01-23T17:25:59.383Z,103641.41
2023-01-23T17:28:28.904Z,103640.75
2023-01-23T17:31:00.364Z,103630.34
2023-01-23T17:33:31.955Z,103636.59
2023-01-23T17:36:03.280Z,103639.91
2023-01-23T17:38:32.031Z,103640.78
2023-01-23T17:40:59.866Z,103636.91
2023-01-23T17:43:29.038Z,103637.16
2023-01-23T17:45:58.340Z,103642.75
2023-01-23T17:48:29.216Z,103644.69
2023-01-23T17:50:57.898Z,103641.28
2023-01-23T17:53:27.892Z,103648.22
2023-01-23T17:55:55.808Z,103646.50
2023-01-23T17:58:24.424Z,103644.94
2023-01-23T18:00:53.840Z,103646.00
2023-01-23T18:03:24.713Z,103642.09
2023-01-23T18:05:52.705Z,103655.03
2023-01-23T18:08:22.727Z,103645.75
2023-01-23T18:10:54.005Z,103650.03
2023-01-23T18:13:29.977Z,103657.44
2023-01-23T18:16:06.643Z,103647.78
2023-01-23T18:18:38.657Z,103657.31
2023-01-23T18:21:08.359Z,103655.69
2023-01-23T18:23:37.465Z,103662.34
2023-01-23T18:26:17.365Z,103662.63
2023-01-23T18:28:53.039Z,103664.50
2023-01-23T18:31:32.765Z,103658.22
2023-01-23T18:34:15.305Z,103668.06
2023-01-23T18:36:53.380Z,103657.78
2023-01-23T18:39:35.266Z,103668.09
2023-01-23T18:42:16.398Z,103668.22
2023-01-23T18:44:50.959Z,103672.34
2023-01-23T18:47:19.988Z,103679.78
2023-01-23T18:49:49.668Z,103680.38
2023-01-23T18:52:22.965Z,103669.31
2023-01-23T18:54:56.673Z,103674.00
2023-01-23T18:57:40.750Z,103672.72
2023-01-23T19:00:17.072Z,103672.06
2023-01-23T19:02:50.387Z,103671.34
2023-01-23T19:05:30.956Z,103670.03
2023-01-23T19:07:59.886Z,103665.22
2023-01-23T19:10:32.463Z,103674.00
2023-01-23T19:13:19.039Z,103669.38
2023-01-23T19:15:55.220Z,103676.13
2023-01-23T19:18:55.240Z,103682.72
2023-01-23T19:21:28.235Z,103685.31
2023-01-23T19:23:58.522Z,103684.09
2023-01-23T19:26:29.577Z,103685.31
2023-01-23T19:28:59.777Z,103682.31
2023-01-23T19:31:29.863Z,103687.88
2023-01-23T19:33:58.771Z,103687.28
2023-01-23T19:36:29.338Z,103692.03
2023-01-23T19:39:02.062Z,103701.38
2023-01-23T19:41:39.047Z,103688.28
2023-01-23T19:44:06.552Z,103691.19
2023-01-23T19:46:36.224Z,103695.78
2023-01-23T19:49:04.598Z,103694.22
2023-01-23T19:51:35.144Z,103680.84
2023-01-23T19:54:03.356Z,103696.03
2023-01-23T19:56:31.328Z,103698.81
2023-01-23T19:58:59.048Z,103690.94
2023-01-23T20:01:36.716Z,103693.72
2023-01-23T20:04:05.059Z,103695.56
2023-01-23T20:06:34.417Z,103689.38
2023-01-23T20:09:02.225Z,103692.88
2023-01-23T20:11:29.950Z,103695.56
2023-01-23T20:13:57.649Z,103699.19
2023-01-23T20:16:26.400Z,103703.78
2023-01-23T20:18:55.042Z,103706.22
2023-01-23T20:21:25.741Z,103700.25
2023-01-23T20:23:54.780Z,103704.66
2023-01-23T20:26:22.566Z,103704.66
2023-01-23T20:28:50.730Z,103704.84
2023-01-23T20:31:18.530Z,103703.63
2023-01-23T20:33:46.623Z,103706.31
2023-01-23T20:36:16.101Z,103706.31
2023-01-23T20:38:44.283Z,103701.94
2023-01-23T20:41:15.658Z,103703.75
2023-01-23T20:43:43.683Z,103703.75
2023-01-23T20:46:13.250Z,103715.03
2023-01-23T20:48:43.862Z,103716.00
2023-01-23T20:51:12.781Z,103706.19
2023-01-23T20:53:40.066Z,103708.25
2023-01-23T20:56:10.165Z,103699.41
2023-01-23T20:58:59.103Z,103698.06
2023-01-23T21:01:29.040Z,103709.22
2023-01-23T21:03:56.901Z,103711.03
2023-01-23T21:06:24.632Z,103711.63
2023-01-23T21:08:52.403Z,103716.72
2023-01-23T21:11:23.941Z,103712.00
2023-01-23T21:13:54.564Z,103712.25
2023-01-23T21:16:22.288Z,103709.09
2023-01-23T21:18:50.034Z,103709.09
2023-01-23T21:21:20.166Z,103707.63
2023-01-23T21:23:50.135Z,103705.31
2023-01-23T21:26:19.241Z,103701.44
2023-01-23T21:28:48.154Z,103710.28
2023-01-23T21:31:20.285Z,103709.31
2023-01-23T21:33:48.819Z,103704.22
2023-01-23T21:36:18.620Z,103712.97
2023-01-23T21:38:46.837Z,103704.09
2023-01-23T21:41:14.658Z,103697.69
2023-01-23T21:43:42.559Z,103703.03
2023-01-23T21:46:10.426Z,103701.31
2023-01-23T21:48:39.547Z,103705.94
2023-01-23T21:51:08.899Z,103698.88
2023-01-23T21:53:36.834Z,103710.78
2023-01-23T21:56:04.916Z,103707.97
2023-01-23T21:58:32.700Z,103713.19
2023-01-23T22:01:19.991Z,103716.59
2023-01-23T22:03:49.278Z,103703.38
2023-01-23T22:06:17.497Z,103709.31
2023-01-23T22:08:45.286Z,103721.09
2023-01-23T22:11:13.219Z,103722.28
2023-01-23T22:13:41.263Z,103723.25
2023-01-23T22:16:09.612Z,103712.69
2023-01-23T22:18:37.354Z,103714.41
2023-01-23T22:21:07.464Z,103710.78
2023-01-23T22:23:35.636Z,103707.25
2023-01-23T22:26:07.734Z,103713.19
2023-01-23T22:28:35.921Z,103712.59
2023-01-23T22:31:10.031Z,103702.88
2023-01-23T22:33:40.793Z,103703.25
2023-01-23T22:36:13.823Z,103725.06
2023-01-23T22:38:41.648Z,103712.09
2023-01-23T22:41:14.058Z,103715.97
2023-01-23T22:43:41.856Z,103712.22
2023-01-23T22:46:13.232Z,103719.00
2023-01-23T22:48:41.080Z,103722.53
2023-01-23T22:51:15.974Z,103717.91
2023-01-23T22:53:43.697Z,103720.09
2023-01-23T22:56:12.307Z,103720.94
2023-01-23T22:58:40.271Z,103728.94
2023-01-23T23:01:08.331Z,103732.34
2023-01-23T23:03:36.349Z,103730.53
2023-01-23T23:06:06.501Z,103731.38
2023-01-23T23:08:36.354Z,103737.56
2023-01-23T23:11:06.171Z,103741.19
2023-01-23T23:13:36.595Z,103737.56
2023-01-23T23:16:05.199Z,103735.88
2023-01-23T23:18:33.799Z,103738.41
2023-01-23T23:21:01.953Z,103745.56
2023-01-23T23:23:30.193Z,103737.53
2023-01-23T23:25:59.383Z,103737.53
2023-01-23T23:28:28.188Z,103730.00
2023-01-23T23:30:56.003Z,103735.47
2023-01-23T23:33:24.415Z,103731.00
2023-01-23T23:35:52.263Z,103725.66
2023-01-23T23:38:20.942Z,103733.44
2023-01-23T23:40:55.439Z,103723.84
2023-01-23T23:43:25.074Z,103729.78
2023-01-23T23:45:53.371Z,103720.94
2023-01-23T23:48:21.347Z,103722.66
2023-01-23T23:50:49.084Z,103723.72
2023-01-23T23:53:17.596Z,103716.81
2023-01-23T23:55:45.551Z,103718.41
2023-01-23T23:58:13.807Z,103718.50
